Time;durP1;ratioP1;P1;durP2;ratioP2;P2;SDS_P1;SDS_P2;PMS_P1;PMS_P2;Temp;Humidity;BMP_temperature;BMP_pressure;BME280_temperature;BME280_humidity;BME280_pressure;Samples;Min_cycle;Max_cycle;Signal;HPM_P1;HPM_P2
2023/10/12 00:00:52;;;;;;;;;;;22.60;56.00;;;;;;1532781;75;1430;-59
2023/10/12 00:02:58;;;;;;;;;;;22.60;56.00;;;;;;1542118;75;706;-58
2023/10/12 00:05:06;;;;;;;;;;;22.60;56.00;;;;;;1547744;75;1492;-59
2023/10/12 00:07:42;;;;;;;;;;;22.60;56.00;;;;;;1544312;75;1645;-60
2023/10/12 00:09:19;;;;;;;;;;;22.60;56.10;;;;;;1527828;76;1375;-60
2023/10/12 00:11:21;;;;;;;;;;;22.60;56.10;;;;;;1544687;75;1636;-59
2023/10/12 00:13:28;;;;;;;;;;;22.60;56.00;;;;;;1545388;75;1927;-60
2023/10/12 00:15:29;;;;;;;;;;;22.60;56.10;;;;;;1544650;75;1583;-61
2023/10/12 00:17:33;;;;;;;;;;;22.60;56.10;;;;;;1540797;75;1560;-61
2023/10/12 00:19:33;;;;;;;;;;;22.60;56.00;;;;;;1540912;75;1752;-61
2023/10/12 00:21:35;;;;;;;;;;;22.60;56.00;;;;;;1544910;75;1583;-61
2023/10/12 00:23:37;;;;;;;;;;;22.60;56.00;;;;;;1542976;75;691;-61
2023/10/12 00:25:46;;;;;;;;;;;22.60;56.00;;;;;;1542424;75;769;-61
2023/10/12 00:27:48;;;;;;;;;;;22.60;56.00;;;;;;1545257;75;729;-60
2023/10/12 00:29:51;;;;;;;;;;;22.60;56.10;;;;;;1542930;75;793;-60
2023/10/12 00:31:55;;;;;;;;;;;22.60;56.00;;;;;;1546225;75;667;-60
2023/10/12 00:33:57;;;;;;;;;;;22.60;56.10;;;;;;1545947;75;1924;-60
2023/10/12 00:36:19;;;;;;;;;;;22.60;56.20;;;;;;1540398;75;1550;-61
2023/10/12 00:38:18;;;;;;;;;;;22.60;56.10;;;;;;1539136;75;1805;-60
2023/10/12 00:40:31;;;;;;;;;;;22.60;56.30;;;;;;1543896;75;1108;-60
2023/10/12 00:42:32;;;;;;;;;;;22.60;56.10;;;;;;1540286;75;1512;-60
2023/10/12 00:44:34;;;;;;;;;;;22.60;56.10;;;;;;1541964;75;1596;-59
2023/10/12 00:48:48;;;;;;;;;;;22.60;56.10;;;;;;1542675;75;872;-59
2023/10/12 00:50:48;;;;;;;;;;;22.60;56.10;;;;;;1542721;75;1666;-60
2023/10/12 00:52:56;;;;;;;;;;;22.60;56.10;;;;;;1530380;75;777;-60
2023/10/12 00:55:04;;;;;;;;;;;22.60;56.10;;;;;;1546348;75;1916;-60
2023/10/12 00:57:03;;;;;;;;;;;22.50;56.10;;;;;;1552049;75;1570;-60
2023/10/12 00:59:06;;;;;;;;;;;22.60;56.20;;;;;;1533078;75;737;-58
2023/10/12 01:01:08;;;;;;;;;;;22.60;56.20;;;;;;1541415;75;1152;-60
2023/10/12 01:03:28;;;;;;;;;;;22.70;56.30;;;;;;1542881;75;1522;-60
2023/10/12 01:05:17;;;;;;;;;;;22.60;56.20;;;;;;1540567;75;1567;-60
2023/10/12 01:07:25;;;;;;;;;;;22.60;56.20;;;;;;1536993;75;1794;-60
2023/10/12 01:09:26;;;;;;;;;;;22.60;56.10;;;;;;1542835;75;1577;-60
2023/10/12 01:11:27;;;;;;;;;;;22.60;56.20;;;;;;1544429;75;1170;-60
2023/10/12 01:13:33;;;;;;;;;;;22.70;56.30;;;;;;1542214;75;1931;-60
2023/10/12 01:15:33;;;;;;;;;;;22.60;56.30;;;;;;1536564;75;1617;-59
2023/10/12 01:17:35;;;;;;;;;;;22.60;56.10;;;;;;1545125;75;1536;-61
2023/10/12 01:19:44;;;;;;;;;;;22.60;56.20;;;;;;1547184;75;802;-59
2023/10/12 01:21:42;;;;;;;;;;;22.60;56.20;;;;;;1539148;75;1710;-60
2023/10/12 01:23:50;;;;;;;;;;;22.60;56.20;;;;;;1534985;75;1164;-60
2023/10/12 01:25:49;;;;;;;;;;;22.60;56.30;;;;;;1543536;75;1675;-60
2023/10/12 01:27:53;;;;;;;;;;;22.70;56.30;;;;;;1542199;75;775;-60
2023/10/12 01:30:13;;;;;;;;;;;22.60;56.20;;;;;;1541442;75;1119;-60
2023/10/12 01:32:41;;;;;;;;;;;22.60;56.30;;;;;;1538163;75;1709;-59
2023/10/12 01:34:05;;;;;;;;;;;22.60;56.30;;;;;;1521247;75;1917;-60
2023/10/12 01:36:07;;;;;;;;;;;22.60;56.30;;;;;;1547192;75;796;-61
2023/10/12 01:38:10;;;;;;;;;;;22.70;56.30;;;;;;1544793;75;726;-60
2023/10/12 01:40:12;;;;;;;;;;;22.60;56.30;;;;;;1545784;75;1155;-60
2023/10/12 01:42:20;;;;;;;;;;;22.60;56.30;;;;;;1541502;75;762;-60
2023/10/12 01:44:18;;;;;;;;;;;22.60;56.30;;;;;;1551797;75;1463;-60
2023/10/12 01:46:21;;;;;;;;;;;22.70;56.30;;;;;;1546732;75;1539;-62
2023/10/12 01:48:29;;;;;;;;;;;22.60;56.30;;;;;;1547836;75;744;-60
2023/10/12 01:50:28;;;;;;;;;;;22.60;56.30;;;;;;1555643;74;1505;-60
2023/10/12 01:52:30;;;;;;;;;;;22.60;56.30;;;;;;1549017;75;796;-60
2023/10/12 01:54:32;;;;;;;;;;;22.60;56.30;;;;;;1541003;75;1917;-60
2023/10/12 01:56:34;;;;;;;;;;;22.60;56.30;;;;;;1550567;75;805;-60
2023/10/12 01:58:37;;;;;;;;;;;22.60;56.30;;;;;;1541819;75;701;-60
2023/10/12 02:00:42;;;;;;;;;;;22.60;56.30;;;;;;1537388;75;1626;-60
2023/10/12 02:02:53;;;;;;;;;;;22.60;56.40;;;;;;1531895;75;713;-60
2023/10/12 02:04:51;;;;;;;;;;;22.60;56.40;;;;;;1540588;75;1640;-60
2023/10/12 02:06:53;;;;;;;;;;;22.60;56.40;;;;;;1540104;75;786;-59
2023/10/12 02:08:59;;;;;;;;;;;22.60;56.40;;;;;;1547823;75;739;-60
2023/10/12 02:11:26;;;;;;;;;;;22.60;56.40;;;;;;1549238;75;1169;-59
2023/10/12 02:13:16;;;;;;;;;;;22.60;56.50;;;;;;1535571;75;1636;-60
2023/10/12 02:15:18;;;;;;;;;;;22.60;56.50;;;;;;1540630;75;1939;-60
2023/10/12 02:17:25;;;;;;;;;;;22.60;56.50;;;;;;1547592;75;717;-60
2023/10/12 02:19:31;;;;;;;;;;;22.60;56.50;;;;;;1542464;75;1641;-59
2023/10/12 02:21:34;;;;;;;;;;;22.60;56.50;;;;;;1546050;75;1126;-58
2023/10/12 02:23:53;;;;;;;;;;;22.60;56.50;;;;;;1546957;75;691;-60
2023/10/12 02:25:50;;;;;;;;;;;22.60;56.50;;;;;;1543337;75;1690;-59
2023/10/12 02:27:56;;;;;;;;;;;22.60;56.50;;;;;;1543323;75;1687;-61
2023/10/12 02:29:58;;;;;;;;;;;22.70;56.60;;;;;;1544078;75;1134;-61
2023/10/12 02:32:15;;;;;;;;;;;22.60;56.50;;;;;;1546260;75;758;-59
2023/10/12 02:34:03;;;;;;;;;;;22.50;56.50;;;;;;1542278;75;1923;-61
2023/10/12 02:36:06;;;;;;;;;;;22.60;56.50;;;;;;1545669;75;704;-62
2023/10/12 02:38:10;;;;;;;;;;;22.60;56.50;;;;;;1533838;75;828;-59
2023/10/12 02:40:12;;;;;;;;;;;22.60;56.60;;;;;;1541169;75;1127;-60
2023/10/12 02:44:19;;;;;;;;;;;22.50;56.60;;;;;;1545269;75;811;-60
2023/10/12 02:46:25;;;;;;;;;;;22.60;56.70;;;;;;1541345;75;743;-62
2023/10/12 02:48:29;;;;;;;;;;;22.60;56.70;;;;;;1540282;75;701;-61
2023/10/12 02:50:37;;;;;;;;;;;22.50;56.70;;;;;;1546277;75;1675;-61
2023/10/12 02:52:34;;;;;;;;;;;22.60;56.80;;;;;;1533178;75;1659;-61
2023/10/12 02:54:41;;;;;;;;;;;22.60;56.70;;;;;;1547133;75;1949;-61
2023/10/12 02:56:42;;;;;;;;;;;22.50;56.80;;;;;;1540450;75;1689;-62
2023/10/12 02:58:45;;;;;;;;;;;22.60;56.80;;;;;;1544133;75;670;-62
2023/10/12 03:00:47;;;;;;;;;;;22.60;56.70;;;;;;1550733;75;1193;-61
2023/10/12 03:02:53;;;;;;;;;;;22.60;56.80;;;;;;1545180;75;781;-62
2023/10/12 03:04:55;;;;;;;;;;;22.60;56.70;;;;;;1542317;75;1670;-61
2023/10/12 03:07:10;;;;;;;;;;;22.60;56.60;;;;;;1538887;75;1637;-61
2023/10/12 03:11:13;;;;;;;;;;;22.60;56.50;;;;;;1536550;75;1391;-62
2023/10/12 03:13:17;;;;;;;;;;;22.50;56.50;;;;;;1539856;75;1345;-61
2023/10/12 03:15:13;;;;;;;;;;;22.50;56.50;;;;;;1540150;75;1923;-61
2023/10/12 03:17:16;;;;;;;;;;;22.60;56.50;;;;;;1533794;75;713;-59
2023/10/12 03:19:22;;;;;;;;;;;22.50;56.40;;;;;;1545278;75;747;-61
2023/10/12 03:21:23;;;;;;;;;;;22.60;56.40;;;;;;1547328;75;1614;-60
2023/10/12 03:23:26;;;;;;;;;;;22.50;56.40;;;;;;1543563;75;786;-61
2023/10/12 03:25:43;;;;;;;;;;;22.50;56.40;;;;;;1548354;75;1677;-62
2023/10/12 03:27:40;;;;;;;;;;;22.50;56.50;;;;;;1549411;75;1596;-61
2023/10/12 03:30:00;;;;;;;;;;;22.50;56.40;;;;;;1543925;75;798;-61
2023/10/12 03:31:56;;;;;;;;;;;22.60;56.40;;;;;;1547327;75;1840;-62
2023/10/12 03:33:58;;;;;;;;;;;22.50;56.50;;;;;;1542549;75;684;-59
2023/10/12 03:36:23;;;;;;;;;;;22.60;56.50;;;;;;1534906;75;1925;-59
2023/10/12 03:38:25;;;;;;;;;;;22.50;56.60;;;;;;1541245;75;1607;-59
2023/10/12 03:42:47;;;;;;;;;;;22.50;56.60;;;;;;1542287;75;1912;-60
2023/10/12 03:44:50;;;;;;;;;;;22.50;56.70;;;;;;1542666;75;1581;-60
2023/10/12 03:47:00;;;;;;;;;;;22.50;56.80;;;;;;1541889;75;703;-60
2023/10/12 03:49:08;;;;;;;;;;;22.60;56.80;;;;;;1539142;75;1659;-61
2023/10/12 03:53:26;;;;;;;;;;;22.50;56.90;;;;;;1546085;75;1525;-61
2023/10/12 03:55:27;;;;;;;;;;;22.50;56.60;;;;;;1540499;75;1949;-61
2023/10/12 03:59:44;;;;;;;;;;;22.50;56.80;;;;;;1547432;75;888;-61
2023/10/12 04:01:42;;;;;;;;;;;22.60;56.80;;;;;;1539677;75;1662;-61
2023/10/12 04:03:44;;;;;;;;;;;22.50;57.00;;;;;;1553228;75;737;-61
2023/10/12 04:05:50;;;;;;;;;;;22.50;56.80;;;;;;1539929;75;747;-61
2023/10/12 04:10:13;;;;;;;;;;;22.50;57.10;;;;;;1543509;75;1153;-60
2023/10/12 04:15:27;;;;;;;;;;;22.60;55.70;;;;;;1489129;75;1035;-61
2023/10/12 04:16:27;;;;;;;;;;;22.60;57.00;;;;;;1525341;75;1925;-59
2023/10/12 04:18:32;;;;;;;;;;;22.60;57.30;;;;;;1541558;75;694;-62
2023/10/12 04:20:34;;;;;;;;;;;22.60;57.30;;;;;;1539443;75;1670;-61
2023/10/12 04:23:03;;;;;;;;;;;22.60;57.30;;;;;;1550566;75;731;-63
2023/10/12 04:24:54;;;;;;;;;;;22.60;57.30;;;;;;1541921;75;1443;-61
2023/10/12 04:27:16;;;;;;;;;;;22.60;57.60;;;;;;1540309;75;1584;-61
2023/10/12 04:29:13;;;;;;;;;;;22.60;57.40;;;;;;1536735;75;1735;-60
2023/10/12 04:31:20;;;;;;;;;;;22.60;56.80;;;;;;1545528;75;1708;-61
2023/10/12 04:33:18;;;;;;;;;;;22.60;55.20;;;;;;1551685;75;1627;-61
2023/10/12 04:36:11;;;;;;;;;;;22.60;54.80;;;;;;1543129;75;1924;-59
2023/10/12 04:37:27;;;;;;;;;;;22.50;53.70;;;;;;1529130;75;1439;-59
2023/10/12 04:39:36;;;;;;;;;;;22.40;53.10;;;;;;1544258;75;758;-60
2023/10/12 04:44:06;;;;;;;;;;;22.40;51.40;;;;;;1510658;75;1273;-60
2023/10/12 04:48:18;;;;;;;;;;;22.30;50.70;;;;;;1556212;75;1538;-60
2023/10/12 04:50:43;;;;;;;;;;;22.20;50.10;;;;;;1533269;75;1058;-60
2023/10/12 04:52:40;;;;;;;;;;;22.20;49.80;;;;;;1544983;75;1870;-60
2023/10/12 04:59:16;;;;;;;;;;;22.10;49.20;;;;;;1506131;77;868;-60
2023/10/12 05:01:24;;;;;;;;;;;22.10;48.70;;;;;;1543185;75;1150;-60
2023/10/12 05:03:33;;;;;;;;;;;22.10;49.10;;;;;;1542987;75;1681;-60
2023/10/12 05:07:54;;;;;;;;;;;22.10;48.20;;;;;;1542633;75;1664;-60
2023/10/12 05:09:56;;;;;;;;;;;22.00;48.10;;;;;;1540611;75;1161;-60
2023/10/12 05:11:58;;;;;;;;;;;22.00;48.00;;;;;;1543221;75;756;-61
2023/10/12 05:14:07;;;;;;;;;;;22.00;48.10;;;;;;1541723;75;751;-59
2023/10/12 05:16:06;;;;;;;;;;;22.00;47.90;;;;;;1541628;75;1935;-60
2023/10/12 05:18:10;;;;;;;;;;;22.00;47.90;;;;;;1536334;75;1474;-60
2023/10/12 05:20:12;;;;;;;;;;;22.10;47.70;;;;;;1540893;75;1800;-60
2023/10/12 05:22:14;;;;;;;;;;;22.00;47.30;;;;;;1542742;75;777;-59
2023/10/12 05:24:16;;;;;;;;;;;22.00;46.90;;;;;;1532808;75;731;-59
2023/10/12 05:26:25;;;;;;;;;;;22.00;47.30;;;;;;1558423;75;806;-60
2023/10/12 05:28:26;;;;;;;;;;;21.90;47.00;;;;;;1538187;75;1486;-60
2023/10/12 05:30:27;;;;;;;;;;;22.00;46.90;;;;;;1540498;75;1593;-60
2023/10/12 05:32:42;;;;;;;;;;;21.90;46.70;;;;;;1535476;75;735;-59
2023/10/12 05:36:42;;;;;;;;;;;21.90;46.50;;;;;;1543216;75;1901;-59
2023/10/12 05:38:52;;;;;;;;;;;21.90;46.70;;;;;;1546540;75;1053;-60
2023/10/12 05:40:55;;;;;;;;;;;21.90;46.00;;;;;;1531747;75;1150;-59
2023/10/12 05:42:57;;;;;;;;;;;21.90;45.70;;;;;;1542556;75;690;-59
2023/10/12 05:45:44;;;;;;;;;;;21.90;45.90;;;;;;1537679;75;1289;-59
2023/10/12 05:47:03;;;;;;;;;;;22.00;45.70;;;;;;1542059;75;1552;-59
2023/10/12 05:49:13;;;;;;;;;;;21.90;45.80;;;;;;1541338;75;793;-60
2023/10/12 05:51:21;;;;;;;;;;;21.90;46.00;;;;;;1539739;75;1125;-60
2023/10/12 05:53:20;;;;;;;;;;;21.90;46.00;;;;;;1539935;75;1499;-60
2023/10/12 05:55:22;;;;;;;;;;;21.90;46.20;;;;;;1543048;75;1908;-60
2023/10/12 05:57:29;;;;;;;;;;;21.90;45.70;;;;;;1547230;75;698;-61
2023/10/12 05:59:30;;;;;;;;;;;21.80;45.60;;;;;;1532852;75;1524;-60
2023/10/12 06:01:32;;;;;;;;;;;21.90;45.70;;;;;;1532717;75;1136;-60
2023/10/12 06:03:36;;;;;;;;;;;21.80;45.50;;;;;;1547532;75;718;-60
2023/10/12 06:05:37;;;;;;;;;;;21.80;46.00;;;;;;1547692;75;698;-60
2023/10/12 06:07:39;;;;;;;;;;;21.80;45.70;;;;;;1542883;75;756;-60
2023/10/12 06:09:41;;;;;;;;;;;21.70;45.80;;;;;;1527286;75;827;-60
2023/10/12 06:11:44;;;;;;;;;;;21.70;45.90;;;;;;1546052;75;1113;-59
2023/10/12 06:13:51;;;;;;;;;;;21.70;45.80;;;;;;1541819;75;1576;-60
2023/10/12 06:15:53;;;;;;;;;;;21.80;46.10;;;;;;1540897;75;1924;-61
2023/10/12 06:17:55;;;;;;;;;;;21.70;46.00;;;;;;1546167;75;1116;-60
2023/10/12 06:19:58;;;;;;;;;;;21.70;46.00;;;;;;1543207;75;1163;-61
2023/10/12 06:22:00;;;;;;;;;;;21.70;46.30;;;;;;1550547;75;692;-60
2023/10/12 06:24:05;;;;;;;;;;;21.70;46.40;;;;;;1544836;75;694;-60
2023/10/12 06:26:14;;;;;;;;;;;21.70;46.60;;;;;;1543741;75;1697;-60
2023/10/12 06:28:17;;;;;;;;;;;21.70;46.50;;;;;;1543841;75;1659;-60
2023/10/12 06:30:18;;;;;;;;;;;21.60;46.50;;;;;;1542429;75;1661;-60
2023/10/12 06:32:25;;;;;;;;;;;21.60;46.90;;;;;;1543645;75;739;-60
2023/10/12 06:34:24;;;;;;;;;;;21.60;46.80;;;;;;1542559;75;1607;-60
2023/10/12 06:36:38;;;;;;;;;;;21.60;47.00;;;;;;1539665;75;1925;-60
2023/10/12 06:38:47;;;;;;;;;;;21.60;47.10;;;;;;1538862;75;766;-60
2023/10/12 06:41:00;;;;;;;;;;;21.60;47.20;;;;;;1544443;75;1598;-61
2023/10/12 06:42:47;;;;;;;;;;;21.60;47.10;;;;;;1539878;75;1164;-61
2023/10/12 06:44:50;;;;;;;;;;;21.60;47.20;;;;;;1542656;75;769;-60
2023/10/12 06:46:58;;;;;;;;;;;21.50;46.90;;;;;;1540386;75;651;-60
2023/10/12 06:49:00;;;;;;;;;;;21.50;47.10;;;;;;1536468;75;784;-60
2023/10/12 06:51:02;;;;;;;;;;;21.50;47.40;;;;;;1533851;75;1148;-60
2023/10/12 06:53:06;;;;;;;;;;;21.50;47.50;;;;;;1534784;75;801;-60
2023/10/12 06:55:09;;;;;;;;;;;21.50;47.50;;;;;;1542320;75;1494;-60
2023/10/12 07:01:27;;;;;;;;;;;21.50;47.70;;;;;;1541331;75;1139;-60
2023/10/12 07:03:29;;;;;;;;;;;21.50;47.60;;;;;;1540571;75;742;-60
2023/10/12 07:05:37;;;;;;;;;;;21.50;48.00;;;;;;1542014;75;711;-60
2023/10/12 07:07:41;;;;;;;;;;;21.40;47.80;;;;;;1548977;75;1600;-60
2023/10/12 07:09:47;;;;;;;;;;;21.40;47.70;;;;;;1540387;75;1639;-60
2023/10/12 07:11:45;;;;;;;;;;;21.40;48.00;;;;;;1541383;75;1658;-60
2023/10/12 07:13:49;;;;;;;;;;;21.40;48.00;;;;;;1542941;75;730;-61
2023/10/12 07:15:51;;;;;;;;;;;21.40;48.10;;;;;;1541926;75;1918;-60
2023/10/12 07:17:53;;;;;;;;;;;21.40;48.20;;;;;;1538523;75;774;-60
2023/10/12 07:19:55;;;;;;;;;;;21.40;48.00;;;;;;1533725;75;1083;-60
2023/10/12 07:22:01;;;;;;;;;;;21.40;48.30;;;;;;1542319;75;714;-60
2023/10/12 07:24:01;;;;;;;;;;;21.50;48.60;;;;;;1543749;75;1939;-61
2023/10/12 07:26:12;;;;;;;;;;;21.50;48.80;;;;;;1545921;75;775;-60
2023/10/12 07:28:15;;;;;;;;;;;21.50;48.90;;;;;;1534371;75;1697;-61
2023/10/12 07:30:30;;;;;;;;;;;21.60;49.00;;;;;;1539041;75;1746;-61
2023/10/12 07:34:30;;;;;;;;;;;21.70;49.10;;;;;;1469118;76;1194;-59
2023/10/12 07:39:14;;;;;;;;;;;21.70;49.20;;;;;;1550022;75;1597;-61
2023/10/12 07:41:09;;;;;;;;;;;21.80;49.20;;;;;;1538435;75;1450;-61
2023/10/12 07:42:55;;;;;;;;;;;21.80;49.20;;;;;;1535443;75;1592;-59
2023/10/12 07:44:59;;;;;;;;;;;21.80;49.30;;;;;;1544788;75;756;-61
2023/10/12 07:47:03;;;;;;;;;;;21.80;49.30;;;;;;1542070;75;1687;-61
2023/10/12 07:49:25;;;;;;;;;;;21.90;49.40;;;;;;1536167;75;1587;-60
2023/10/12 07:51:25;;;;;;;;;;;21.90;49.40;;;;;;1538688;74;1617;-60
2023/10/12 07:53:29;;;;;;;;;;;21.90;49.40;;;;;;1541386;75;730;-61
2023/10/12 07:55:30;;;;;;;;;;;21.90;49.50;;;;;;1554692;75;995;-61
2023/10/12 07:57:37;;;;;;;;;;;22.00;49.40;;;;;;1544028;75;1913;-61
2023/10/12 07:59:38;;;;;;;;;;;22.00;49.40;;;;;;1542966;75;1618;-61
2023/10/12 08:01:42;;;;;;;;;;;22.00;49.40;;;;;;1542495;75;1651;-61
2023/10/12 08:03:50;;;;;;;;;;;22.00;49.40;;;;;;1549387;75;1628;-61
2023/10/12 08:06:08;;;;;;;;;;;22.00;49.50;;;;;;1537978;75;1623;-60
2023/10/12 08:08:08;;;;;;;;;;;22.20;49.50;;;;;;1540840;75;1131;-61
2023/10/12 08:10:09;;;;;;;;;;;22.10;49.60;;;;;;1541210;75;1652;-60
2023/10/12 08:12:30;;;;;;;;;;;22.20;49.40;;;;;;1539817;75;1606;-61
2023/10/12 08:15:07;;;;;;;;;;;22.30;49.60;;;;;;1535339;75;1414;-60
2023/10/12 08:16:15;;;;;;;;;;;22.20;49.50;;;;;;1516608;75;1938;-61
2023/10/12 08:20:53;;;;;;;;;;;22.30;49.70;;;;;;1542212;75;1639;-61
2023/10/12 08:23:01;;;;;;;;;;;22.20;49.50;;;;;;1538323;75;1529;-61
2023/10/12 08:25:04;;;;;;;;;;;22.30;49.60;;;;;;1545575;75;1593;-60
2023/10/12 08:27:01;;;;;;;;;;;22.40;49.60;;;;;;1550012;75;1562;-61
2023/10/12 08:29:09;;;;;;;;;;;22.40;49.60;;;;;;1557032;75;1696;-60
2023/10/12 08:31:15;;;;;;;;;;;22.40;49.60;;;;;;1552267;75;1588;-60
2023/10/12 08:33:14;;;;;;;;;;;22.30;49.50;;;;;;1538683;75;1696;-61
2023/10/12 08:35:32;;;;;;;;;;;22.40;49.50;;;;;;1551021;75;989;-60
2023/10/12 08:37:20;;;;;;;;;;;22.40;49.60;;;;;;1549560;75;1927;-61
2023/10/12 08:39:36;;;;;;;;;;;22.40;49.60;;;;;;1545906;75;799;-61
2023/10/12 08:43:44;;;;;;;;;;;22.40;49.60;;;;;;1550605;75;788;-60
2023/10/12 08:45:39;;;;;;;;;;;22.40;49.60;;;;;;1536854;75;1734;-60
2023/10/12 08:47:48;;;;;;;;;;;22.40;49.60;;;;;;1535539;75;1539;-61
2023/10/12 08:50:01;;;;;;;;;;;22.40;49.40;;;;;;1540276;75;1633;-61
2023/10/12 08:52:04;;;;;;;;;;;22.40;49.50;;;;;;1539849;75;1629;-60
2023/10/12 08:53:54;;;;;;;;;;;22.40;49.40;;;;;;1535414;75;1622;-60
2023/10/12 08:55:56;;;;;;;;;;;22.40;49.40;;;;;;1551020;75;760;-61
2023/10/12 08:58:11;;;;;;;;;;;22.50;49.60;;;;;;1542893;75;1946;-60
2023/10/12 09:02:19;;;;;;;;;;;22.40;49.40;;;;;;1506325;75;1642;-60
2023/10/12 09:04:29;;;;;;;;;;;22.40;49.40;;;;;;1553192;75;721;-60
2023/10/12 09:06:53;;;;;;;;;;;22.50;49.60;;;;;;1544875;75;1699;-61
2023/10/12 09:13:02;;;;;;;;;;;22.40;49.50;;;;;;1543368;75;1677;-60
2023/10/12 09:15:08;;;;;;;;;;;22.50;49.70;;;;;;1536369;75;737;-60
2023/10/12 09:17:07;;;;;;;;;;;22.40;49.50;;;;;;1528350;76;1939;-61
2023/10/12 09:19:23;;;;;;;;;;;22.40;49.50;;;;;;1544725;75;916;-61
2023/10/12 09:21:23;;;;;;;;;;;22.50;49.60;;;;;;1541694;75;1733;-59
2023/10/12 09:23:20;;;;;;;;;;;22.50;49.60;;;;;;1541634;75;1551;-61
2023/10/12 09:27:36;;;;;;;;;;;22.50;49.60;;;;;;1510547;76;1037;-61
2023/10/12 09:29:42;;;;;;;;;;;22.50;49.50;;;;;;1537881;75;1668;-60
2023/10/12 09:36:02;;;;;;;;;;;22.50;49.50;;;;;;1542845;75;855;-60
2023/10/12 09:38:05;;;;;;;;;;;22.50;49.40;;;;;;1543052;75;1940;-61
2023/10/12 09:40:24;;;;;;;;;;;22.50;49.40;;;;;;1535636;75;1134;-61
2023/10/12 09:42:14;;;;;;;;;;;22.50;49.50;;;;;;1537315;75;1536;-61
2023/10/12 09:44:15;;;;;;;;;;;22.50;49.50;;;;;;1544455;75;1660;-60
2023/10/12 09:46:17;;;;;;;;;;;22.50;49.40;;;;;;1530199;75;747;-61
2023/10/12 09:48:26;;;;;;;;;;;22.60;49.40;;;;;;1542565;75;773;-60
2023/10/12 09:50:32;;;;;;;;;;;22.50;49.40;;;;;;1530953;76;1659;-60
2023/10/12 09:52:46;;;;;;;;;;;22.50;49.40;;;;;;1542723;75;1661;-60
2023/10/12 09:54:45;;;;;;;;;;;22.50;49.40;;;;;;1541682;75;1697;-60
2023/10/12 09:56:47;;;;;;;;;;;22.50;49.40;;;;;;1549839;75;2133;-60
2023/10/12 09:59:03;;;;;;;;;;;22.50;49.40;;;;;;1542399;75;1524;-60
2023/10/12 10:01:07;;;;;;;;;;;22.50;49.40;;;;;;1543878;75;1657;-60
2023/10/12 10:03:04;;;;;;;;;;;22.50;49.50;;;;;;1543771;75;1628;-60
2023/10/12 10:05:26;;;;;;;;;;;22.50;49.50;;;;;;1553566;75;826;-60
2023/10/12 10:07:25;;;;;;;;;;;22.50;49.50;;;;;;1541192;75;1709;-60
2023/10/12 10:11:26;;;;;;;;;;;22.50;49.50;;;;;;1534233;75;1128;-60
2023/10/12 10:13:46;;;;;;;;;;;22.50;49.40;;;;;;1538799;75;1513;-62
2023/10/12 10:15:55;;;;;;;;;;;22.50;49.50;;;;;;1532537;75;1841;-61
2023/10/12 10:17:52;;;;;;;;;;;22.50;49.40;;;;;;1547287;75;1936;-60
2023/10/12 10:22:31;;;;;;;;;;;22.50;49.50;;;;;;1540879;75;1246;-61
2023/10/12 10:24:37;;;;;;;;;;;22.50;49.40;;;;;;1509095;76;1507;-60
2023/10/12 10:26:38;;;;;;;;;;;22.50;49.40;;;;;;1531311;75;2332;-60
2023/10/12 10:28:53;;;;;;;;;;;22.50;49.40;;;;;;1515525;77;1322;-60
2023/10/12 10:30:49;;;;;;;;;;;22.50;49.40;;;;;;1550187;75;1678;-60
2023/10/12 10:32:47;;;;;;;;;;;22.50;49.30;;;;;;1544186;75;1662;-60
2023/10/12 10:34:56;;;;;;;;;;;22.50;49.30;;;;;;1510467;77;1340;-60
2023/10/12 10:36:57;;;;;;;;;;;22.50;49.30;;;;;;1538998;75;1931;-61
2023/10/12 10:38:57;;;;;;;;;;;22.50;49.30;;;;;;1550233;75;1633;-61
2023/10/12 10:41:07;;;;;;;;;;;22.50;49.30;;;;;;1549096;75;1642;-60
2023/10/12 10:43:14;;;;;;;;;;;22.50;49.30;;;;;;1543587;75;714;-61
2023/10/12 10:45:15;;;;;;;;;;;22.50;49.30;;;;;;1545039;75;1691;-61
2023/10/12 10:47:17;;;;;;;;;;;22.50;49.20;;;;;;1539609;75;1625;-61
2023/10/12 10:49:19;;;;;;;;;;;22.50;49.30;;;;;;1534183;75;728;-61
2023/10/12 10:51:32;;;;;;;;;;;22.50;49.40;;;;;;1548694;74;1133;-60
2023/10/12 10:53:31;;;;;;;;;;;22.50;49.40;;;;;;1533293;75;1560;-60
2023/10/12 10:55:31;;;;;;;;;;;22.50;49.30;;;;;;1553495;75;1629;-61
2023/10/12 10:57:37;;;;;;;;;;;22.50;49.40;;;;;;1544476;75;1926;-61
2023/10/12 10:59:37;;;;;;;;;;;22.50;49.30;;;;;;1539888;75;1615;-60
2023/10/12 11:01:48;;;;;;;;;;;22.50;49.30;;;;;;1533324;75;1129;-61
2023/10/12 11:03:46;;;;;;;;;;;22.50;49.30;;;;;;1535881;75;1433;-61
2023/10/12 11:05:48;;;;;;;;;;;22.50;49.40;;;;;;1545255;75;806;-60
2023/10/12 11:07:52;;;;;;;;;;;22.50;49.30;;;;;;1547656;75;1526;-60
2023/10/12 11:12:01;;;;;;;;;;;22.50;49.40;;;;;;1539457;75;810;-61
2023/10/12 11:14:04;;;;;;;;;;;22.50;49.40;;;;;;1546225;75;765;-61
2023/10/12 11:16:28;;;;;;;;;;;22.50;49.40;;;;;;1544252;75;803;-62
2023/10/12 11:18:25;;;;;;;;;;;22.50;49.30;;;;;;1543560;75;1927;-60
2023/10/12 11:20:35;;;;;;;;;;;22.50;49.40;;;;;;1541458;75;1131;-61
2023/10/12 11:22:33;;;;;;;;;;;22.50;49.30;;;;;;1541979;75;1508;-60
2023/10/12 11:24:37;;;;;;;;;;;22.50;49.30;;;;;;1539958;75;827;-61
2023/10/12 11:26:54;;;;;;;;;;;22.50;49.30;;;;;;1527233;76;1157;-61
2023/10/12 11:29:07;;;;;;;;;;;22.50;49.20;;;;;;1540075;75;737;-61
2023/10/12 11:31:30;;;;;;;;;;;22.50;49.30;;;;;;1547535;75;1136;-60
2023/10/12 11:33:20;;;;;;;;;;;22.50;49.30;;;;;;1535209;75;1761;-59
2023/10/12 11:35:40;;;;;;;;;;;22.50;49.30;;;;;;1541775;75;1653;-60
2023/10/12 11:37:39;;;;;;;;;;;22.50;49.30;;;;;;1539421;75;1947;-59
2023/10/12 11:39:41;;;;;;;;;;;22.50;49.30;;;;;;1525402;75;738;-60
2023/10/12 11:41:45;;;;;;;;;;;22.50;49.30;;;;;;1524117;75;1128;-60
2023/10/12 11:43:57;;;;;;;;;;;22.50;49.20;;;;;;1535714;75;1620;-60
2023/10/12 11:46:01;;;;;;;;;;;22.50;49.30;;;;;;1542070;75;1494;-60
2023/10/12 11:48:20;;;;;;;;;;;22.50;49.30;;;;;;1541449;75;750;-60
2023/10/12 11:50:24;;;;;;;;;;;22.50;49.20;;;;;;1543221;75;1632;-61
2023/10/12 11:52:33;;;;;;;;;;;22.50;49.30;;;;;;1542029;75;1053;-61
2023/10/12 11:54:35;;;;;;;;;;;22.50;49.30;;;;;;1539731;75;922;-61
2023/10/12 11:56:43;;;;;;;;;;;22.50;49.20;;;;;;1534066;75;833;-60
2023/10/12 11:58:51;;;;;;;;;;;22.50;49.20;;;;;;1541754;75;1934;-60
2023/10/12 12:00:50;;;;;;;;;;;22.50;49.30;;;;;;1547051;75;1530;-60
2023/10/12 12:02:57;;;;;;;;;;;22.50;49.30;;;;;;1544217;75;772;-61
2023/10/12 12:04:57;;;;;;;;;;;22.50;49.20;;;;;;1538810;75;1586;-60
2023/10/12 12:06:59;;;;;;;;;;;22.50;49.30;;;;;;1541531;75;743;-61
2023/10/12 12:09:03;;;;;;;;;;;22.50;49.20;;;;;;1542065;75;743;-61
2023/10/12 12:11:08;;;;;;;;;;;22.50;49.20;;;;;;1546226;74;1135;-61
2023/10/12 12:13:09;;;;;;;;;;;22.50;49.20;;;;;;1542456;75;1642;-61
2023/10/12 12:15:16;;;;;;;;;;;22.50;49.20;;;;;;1543958;75;790;-61
2023/10/12 12:17:18;;;;;;;;;;;22.50;49.10;;;;;;1533728;75;1949;-61
2023/10/12 12:19:24;;;;;;;;;;;22.50;49.10;;;;;;1542176;75;1460;-61
2023/10/12 12:21:30;;;;;;;;;;;22.50;49.10;;;;;;1541259;75;1654;-61
2023/10/12 12:23:35;;;;;;;;;;;22.50;49.20;;;;;;1542869;75;673;-61
2023/10/12 12:25:44;;;;;;;;;;;22.50;49.10;;;;;;1541237;75;1194;-60
2023/10/12 12:27:48;;;;;;;;;;;22.50;49.20;;;;;;1541626;75;1719;-61
2023/10/12 12:29:45;;;;;;;;;;;22.50;49.20;;;;;;1542240;75;1545;-60
2023/10/12 12:31:47;;;;;;;;;;;22.50;49.20;;;;;;1542160;75;1065;-61
2023/10/12 12:33:49;;;;;;;;;;;22.50;49.10;;;;;;1544939;75;1575;-60
2023/10/12 12:36:10;;;;;;;;;;;22.50;49.10;;;;;;1545054;75;731;-61
2023/10/12 12:38:28;;;;;;;;;;;22.50;49.10;;;;;;1538196;75;1917;-61
2023/10/12 12:42:29;;;;;;;;;;;22.50;49.10;;;;;;1535617;75;1035;-61
2023/10/12 12:44:31;;;;;;;;;;;22.50;49.20;;;;;;1538322;75;1282;-62
2023/10/12 12:46:33;;;;;;;;;;;22.50;49.20;;;;;;1536229;75;1502;-60
2023/10/12 12:48:35;;;;;;;;;;;22.50;49.10;;;;;;1540592;75;1285;-60
2023/10/12 12:50:37;;;;;;;;;;;22.50;49.10;;;;;;1542633;75;1516;-60
2023/10/12 12:52:40;;;;;;;;;;;22.50;49.10;;;;;;1536886;75;1312;-60
2023/10/12 12:54:44;;;;;;;;;;;22.50;49.00;;;;;;1538252;75;1328;-60
2023/10/12 12:56:46;;;;;;;;;;;22.50;49.00;;;;;;1543274;75;1308;-61
2023/10/12 12:58:49;;;;;;;;;;;22.50;49.00;;;;;;1544288;75;1927;-60
2023/10/12 13:00:52;;;;;;;;;;;22.50;49.00;;;;;;1542007;75;1597;-60
2023/10/12 13:02:54;;;;;;;;;;;22.50;49.10;;;;;;1543009;75;863;-60
2023/10/12 13:04:56;;;;;;;;;;;22.50;49.00;;;;;;1537241;75;776;-60
2023/10/12 13:06:58;;;;;;;;;;;22.50;49.00;;;;;;1544447;75;628;-60
2023/10/12 13:09:01;;;;;;;;;;;22.50;49.00;;;;;;1547654;75;692;-60
2023/10/12 13:11:06;;;;;;;;;;;22.50;49.00;;;;;;1545361;75;1118;-60
2023/10/12 13:13:09;;;;;;;;;;;22.50;48.90;;;;;;1538844;75;1138;-60
2023/10/12 13:15:11;;;;;;;;;;;22.50;49.10;;;;;;1543595;75;1543;-61
2023/10/12 13:17:16;;;;;;;;;;;22.50;48.90;;;;;;1542665;75;818;-60
2023/10/12 13:19:17;;;;;;;;;;;22.50;48.90;;;;;;1542764;75;1932;-61
2023/10/12 13:21:22;;;;;;;;;;;22.50;48.90;;;;;;1538385;75;1107;-61
2023/10/12 13:23:23;;;;;;;;;;;22.50;48.90;;;;;;1544008;75;1489;-61